La rose des vents
Donnes mto: Semaine 13/10/08 - 19/10/08 (S 42)
Date Horaire Temp. E. Hum. E. P.atmo. Pluie Vent 1mn Direction Ensoleilleme Ev.Tr. Solaire P. de rose Temp au vent Rafales
13/10/2008 00:00 14,9 C 85 % 1025,0 hPa 0,0 l/m 2,5 km/h (1 Bft) NO 0,00 h 0,025 mm 0 W/m 12,4 C 14,9 C 4,2 km/h (1 Bft)
13/10/2008 01:00 14,7 C 86 % 1024,5 hPa 0,0 l/m 2,8 km/h (1 Bft) N-NO 0,00 h 0,025 mm 0 W/m 12,4 C 14,7 C 4,6 km/h (1 Bft)
13/10/2008 02:00 14,5 C 87 % 1024,1 hPa 0,0 l/m 2,5 km/h (1 Bft) N-NO 0,00 h 0,025 mm 0 W/m 12,3 C 14,5 C 3,7 km/h (1 Bft)
13/10/2008 03:00 14,5 C 81 % 1023,8 hPa 0,0 l/m 4,2 km/h (1 Bft) NO 0,00 h 0,025 mm 0 W/m 11,4 C 14,5 C 5,6 km/h (1 Bft)
13/10/2008 04:00 14,7 C 77 % 1023,1 hPa 0,0 l/m 3,4 km/h (1 Bft) NO 0,00 h 0,025 mm 0 W/m 10,7 C 14,7 C 4,6 km/h (1 Bft)
13/10/2008 05:00 14,8 C 75 % 1022,8 hPa 0,0 l/m 4,6 km/h (1 Bft) O-NO 0,00 h 0,025 mm 0 W/m 10,4 C 14,8 C 6,2 km/h (2 Bft)
13/10/2008 06:00 15,2 C 71 % 1022,8 hPa 0,0 l/m 4,8 km/h (1 Bft) O-NO 0,00 h 0,025 mm 0 W/m 10,0 C 15,2 C 6,4 km/h (2 Bft)
13/10/2008 07:00 15,0 C 71 % 1022,4 hPa 0,0 l/m 0,9 km/h (0 Bft) NO 0,00 h 0,051 mm 6 W/m 9,8 C 15,0 C 1,5 km/h (1 Bft)
13/10/2008 08:00 15,2 C 73 % 1022,6 hPa 0,0 l/m 7,6 km/h (2 Bft) O-SO 0,00 h 0,000 mm 29 W/m 10,3 C 15,2 C 9,7 km/h (2 Bft)
13/10/2008 09:00 17,0 C 71 % 1023,2 hPa 0,0 l/m 5,9 km/h (2 Bft) O-SO 0,00 h 0,051 mm 124 W/m 11,6 C 17,0 C 8,8 km/h (2 Bft)
13/10/2008 10:00 18,2 C 69 % 1023,2 hPa 0,0 l/m 0,8 km/h (0 Bft) O-SO 0,50 h 0,102 mm 236 W/m 12,4 C 18,2 C 1,8 km/h (1 Bft)
13/10/2008 11:00 19,2 C 65 % 1023,1 hPa 0,0 l/m 1,0 km/h (0 Bft) E 0,20 h 0,127 mm 249 W/m 12,3 C 19,2 C 1,9 km/h (1 Bft)
13/10/2008 12:00 21,1 C 60 % 1022,6 hPa 0,0 l/m 2,3 km/h (1 Bft) O-SO 1,00 h 0,152 mm 454 W/m 13,0 C 21,1 C 4,2 km/h (1 Bft)
13/10/2008 13:00 22,4 C 54 % 1022,0 hPa 0,0 l/m 3,4 km/h (1 Bft) E-SE 0,83 h 0,279 mm 438 W/m 12,7 C 22,4 C 6,0 km/h (2 Bft)
13/10/2008 14:00 22,9 C 52 % 1021,5 hPa 0,0 l/m 4,9 km/h (1 Bft) S 1,00 h 0,279 mm 455 W/m 12,4 C 22,9 C 8,4 km/h (2 Bft)
13/10/2008 15:00 21,9 C 59 % 1021,0 hPa 0,0 l/m 4,8 km/h (1 Bft) E-SE 0,60 h 0,330 mm 280 W/m 13,6 C 21,9 C 7,5 km/h (2 Bft)
13/10/2008 16:00 21,6 C 61 % 1020,6 hPa 0,0 l/m 2,8 km/h (1 Bft) SE 0,92 h 0,203 mm 269 W/m 13,8 C 21,6 C 5,1 km/h (1 Bft)
13/10/2008 17:00 20,6 C 63 % 1020,3 hPa 0,0 l/m 2,8 km/h (1 Bft) S 0,33 h 0,178 mm 103 W/m 13,3 C 20,6 C 5,0 km/h (1 Bft)
13/10/2008 18:00 19,2 C 68 % 1019,9 hPa 0,0 l/m 1,1 km/h (0 Bft) S 0,00 h 0,076 mm 21 W/m 13,3 C 19,2 C 1,7 km/h (1 Bft)
13/10/2008 19:00 17,9 C 74 % 1019,8 hPa 0,0 l/m 0,1 km/h (0 Bft) S 0,00 h 0,025 mm 0 W/m 13,2 C 17,9 C 0,2 km/h (0 Bft)
13/10/2008 20:00 17,2 C 77 % 1019,8 hPa 0,0 l/m 2,3 km/h (1 Bft) O 0,00 h 0,000 mm 0 W/m 13,0 C 17,2 C 3,1 km/h (1 Bft)
13/10/2008 21:00 17,3 C 78 % 1019,5 hPa 0,0 l/m 2,6 km/h (1 Bft) O 0,00 h 0,025 mm 0 W/m 13,4 C 17,3 C 3,5 km/h (1 Bft)
13/10/2008 22:00 17,3 C 78 % 1019,5 hPa 0,0 l/m 0,8 km/h (0 Bft) O 0,00 h 0,025 mm 0 W/m 13,4 C 17,3 C 1,3 km/h (1 Bft)
13/10/2008 23:00 17,0 C 78 % 1019,5 hPa 0,0 l/m 1,0 km/h (0 Bft) O-NO 0,00 h 0,025 mm 0 W/m 13,1 C 17,0 C 1,9 km/h (1 Bft)
14/10/2008 00:00 16,7 C 78 % 1019,1 hPa 0,0 l/m 0,5 km/h (0 Bft) O-NO 0,00 h 0,025 mm 0 W/m 12,9 C 16,7 C 1,4 km/h (1 Bft)
14/10/2008 01:00 16,4 C 78 % 1019,0 hPa 0,0 l/m 1,5 km/h (1 Bft) N-NE 0,00 h 0,025 mm 0 W/m 12,5 C 16,4 C 3,1 km/h (1 Bft)
14/10/2008 02:00 16,4 C 75 % 1018,7 hPa 0,0 l/m 0,5 km/h (0 Bft) N-NE 0,00 h 0,025 mm 0 W/m 12,0 C 16,4 C 1,7 km/h (1 Bft)
14/10/2008 03:00 16,9 C 74 % 1018,4 hPa 0,0 l/m 0,6 km/h (0 Bft) N 0,00 h 0,025 mm 0 W/m 12,2 C 16,9 C 1,0 km/h (0 Bft)
14/10/2008 04:00 16,9 C 73 % 1018,0 hPa 0,0 l/m 0,0 km/h (0 Bft) N 0,00 h 0,025 mm 0 W/m 12,0 C 16,9 C 0,0 km/h (0 Bft)
14/10/2008 05:00 16,6 C 75 % 1017,8 hPa 0,0 l/m 1,2 km/h (1 Bft) N 0,00 h 0,025 mm 0 W/m 12,2 C 16,6 C 2,1 km/h (1 Bft)
14/10/2008 06:00 16,4 C 74 % 1017,7 hPa 0,0 l/m 0,3 km/h (0 Bft) N 0,00 h 0,025 mm 0 W/m 11,8 C 16,4 C 0,7 km/h (0 Bft)
14/10/2008 07:00 16,3 C 73 % 1017,7 hPa 0,0 l/m 0,4 km/h (0 Bft) N 0,00 h 0,025 mm 6 W/m 11,4 C 16,3 C 0,9 km/h (0 Bft)
14/10/2008 08:00 16,1 C 73 % 1017,8 hPa 0,0 l/m 0,1 km/h (0 Bft) N 0,00 h 0,000 mm 35 W/m 11,4 C 16,1 C 0,1 km/h (0 Bft)
14/10/2008 09:00 17,8 C 70 % 1018,2 hPa 0,0 l/m 2,3 km/h (1 Bft) O 0,43 h 0,025 mm 162 W/m 12,1 C 17,8 C 3,1 km/h (1 Bft)
14/10/2008 10:00 20,3 C 65 % 1018,5 hPa 0,0 l/m 3,0 km/h (1 Bft) E 1,00 h 0,102 mm 344 W/m 13,4 C 20,3 C 4,9 km/h (1 Bft)
14/10/2008 11:00 21,5 C 66 % 1018,6 hPa 0,0 l/m 3,6 km/h (1 Bft) E-SE 1,00 h 0,229 mm 463 W/m 15,0 C 21,5 C 6,3 km/h (2 Bft)
14/10/2008 12:00 22,3 C 62 % 1018,6 hPa 0,0 l/m 5,7 km/h (1 Bft) E-SE 1,00 h 0,305 mm 535 W/m 14,6 C 22,3 C 9,2 km/h (2 Bft)
14/10/2008 13:00 23,0 C 56 % 1018,1 hPa 0,0 l/m 5,8 km/h (2 Bft) E 1,00 h 0,356 mm 552 W/m 13,6 C 23,0 C 9,5 km/h (2 Bft)
14/10/2008 14:00 23,1 C 54 % 1017,4 hPa 0,0 l/m 5,2 km/h (1 Bft) E 1,00 h 0,381 mm 517 W/m 13,2 C 23,1 C 9,0 km/h (2 Bft)
14/10/2008 15:00 22,7 C 52 % 1017,0 hPa 0,0 l/m 5,4 km/h (1 Bft) E 1,00 h 0,356 mm 429 W/m 12,4 C 22,7 C 8,4 km/h (2 Bft)
14/10/2008 16:00 22,6 C 56 % 1016,7 hPa 0,0 l/m 2,8 km/h (1 Bft) E 1,00 h 0,305 mm 295 W/m 13,3 C 22,6 C 5,9 km/h (2 Bft)
14/10/2008 17:00 20,8 C 69 % 1016,6 hPa 0,0 l/m 1,1 km/h (1 Bft) E-SE 0,88 h 0,203 mm 143 W/m 14,8 C 20,8 C 3,3 km/h (1 Bft)
14/10/2008 18:00 19,2 C 76 % 1016,7 hPa 0,0 l/m 0,1 km/h (0 Bft) E-SE 0,08 h 0,102 mm 30 W/m 14,8 C 19,2 C 0,3 km/h (0 Bft)
14/10/2008 19:00 17,6 C 82 % 1017,2 hPa 0,0 l/m 0,0 km/h (0 Bft) N 0,00 h 0,025 mm 0 W/m 14,4 C 17,6 C 0,0 km/h (0 Bft)
14/10/2008 20:00 16,5 C 85 % 1017,3 hPa 0,0 l/m 0,3 km/h (0 Bft) E-SE 0,00 h 0,000 mm 0 W/m 14,1 C 16,5 C 0,8 km/h (0 Bft)
14/10/2008 21:00 16,2 C 87 % 1017,6 hPa 0,0 l/m 0,5 km/h (0 Bft) E-SE 0,00 h 0,025 mm 0 W/m 14,1 C 16,2 C 0,9 km/h (0 Bft)
14/10/2008 22:00 15,7 C 88 % 1017,8 hPa 0,0 l/m 0,3 km/h (0 Bft) E-SE 0,00 h 0,025 mm 0 W/m 13,8 C 15,7 C 0,7 km/h (0 Bft)
14/10/2008 23:00 15,6 C 89 % 1018,2 hPa 0,0 l/m 0,3 km/h (0 Bft) E-SE 0,00 h 0,025 mm 0 W/m 13,7 C 15,6 C 0,5 km/h (0 Bft)
15/10/2008 00:00 15,6 C 89 % 1018,1 hPa 0,0 l/m 0,2 km/h (0 Bft) E-SE 0,00 h 0,025 mm 0 W/m 13,7 C 15,6 C 0,5 km/h (0 Bft)
15/10/2008 01:00 15,2 C 89 % 1018,1 hPa 0,0 l/m 0,6 km/h (0 Bft) N-NO 0,00 h 0,025 mm 0 W/m 13,4 C 15,2 C 1,2 km/h (1 Bft)
15/10/2008 02:00 15,0 C 90 % 1018,3 hPa 0,0 l/m 0,3 km/h (0 Bft) N-NO 0,00 h 0,025 mm 0 W/m 13,3 C 15,0 C 0,6 km/h (0 Bft)
15/10/2008 03:00 15,1 C 90 % 1018,2 hPa 0,0 l/m 3,4 km/h (1 Bft) NO 0,00 h 0,025 mm 0 W/m 13,5 C 15,1 C 4,6 km/h (1 Bft)
15/10/2008 04:00 15,0 C 90 % 1018,0 hPa 0,0 l/m 3,4 km/h (1 Bft) O 0,00 h 0,025 mm 0 W/m 13,4 C 15,0 C 4,7 km/h (1 Bft)
15/10/2008 05:00 14,1 C 91 % 1017,8 hPa 0,0 l/m 4,1 km/h (1 Bft) O-NO 0,00 h 0,025 mm 0 W/m 12,6 C 14,1 C 5,5 km/h (1 Bft)
15/10/2008 06:00 14,2 C 90 % 1017,7 hPa 0,0 l/m 0,2 km/h (0 Bft) N-NO 0,00 h 0,025 mm 0 W/m 12,6 C 14,2 C 0,5 km/h (0 Bft)
15/10/2008 07:00 14,4 C 90 % 1017,9 hPa 0,0 l/m 4,3 km/h (1 Bft) O 0,03 h 0,025 mm 8 W/m 12,8 C 14,4 C 5,8 km/h (2 Bft)
15/10/2008 08:00 15,2 C 88 % 1018,2 hPa 0,0 l/m 3,5 km/h (1 Bft) O 0,20 h 0,025 mm 60 W/m 13,2 C 15,2 C 4,6 km/h (1 Bft)
15/10/2008 09:00 17,0 C 78 % 1018,6 hPa 0,0 l/m 1,6 km/h (1 Bft) E-NE 1,00 h 0,051 mm 202 W/m 13,1 C 17,0 C 3,4 km/h (1 Bft)
15/10/2008 10:00 19,4 C 75 % 1018,9 hPa 0,0 l/m 3,8 km/h (1 Bft) E 1,00 h 0,127 mm 367 W/m 14,8 C 19,4 C 6,0 km/h (2 Bft)
15/10/2008 11:00 20,5 C 72 % 1019,2 hPa 0,0 l/m 3,8 km/h (1 Bft) E 0,98 h 0,229 mm 479 W/m 15,2 C 20,5 C 6,4 km/h (2 Bft)
15/10/2008 12:00 21,4 C 71 % 1019,2 hPa 0,0 l/m 6,0 km/h (2 Bft) E 1,00 h 0,305 mm 538 W/m 15,9 C 21,4 C 9,0 km/h (2 Bft)
15/10/2008 13:00 22,0 C 69 % 1018,7 hPa 0,0 l/m 7,5 km/h (2 Bft) E 1,00 h 0,356 mm 540 W/m 16,0 C 22,0 C 11,4 km/h (2 Bft)
15/10/2008 14:00 22,1 C 69 % 1018,0 hPa 0,0 l/m 8,3 km/h (2 Bft) E 1,00 h 0,356 mm 502 W/m 16,1 C 22,1 C 12,5 km/h (3 Bft)
15/10/2008 15:00 21,5 C 71 % 1017,4 hPa 0,0 l/m 9,5 km/h (2 Bft) E 1,00 h 0,356 mm 407 W/m 16,0 C 21,5 C 13,6 km/h (3 Bft)
15/10/2008 16:00 20,7 C 73 % 1017,2 hPa 0,0 l/m 6,9 km/h (2 Bft) E 0,48 h 0,279 mm 222 W/m 15,7 C 20,7 C 9,8 km/h (2 Bft)
15/10/2008 17:00 19,1 C 81 % 1017,4 hPa 0,0 l/m 4,2 km/h (1 Bft) E 0,00 h 0,152 mm 67 W/m 15,7 C 19,1 C 6,4 km/h (2 Bft)
15/10/2008 18:00 18,4 C 84 % 1017,6 hPa 0,0 l/m 2,6 km/h (1 Bft) E 0,00 h 0,051 mm 15 W/m 15,6 C 18,4 C 4,5 km/h (1 Bft)
15/10/2008 19:00 17,9 C 86 % 1018,1 hPa 0,0 l/m 0,1 km/h (0 Bft) E 0,00 h 0,025 mm 0 W/m 15,4 C 17,9 C 0,3 km/h (0 Bft)
15/10/2008 20:00 17,8 C 87 % 1018,3 hPa 0,0 l/m 0,1 km/h (0 Bft) E 0,00 h 0,000 mm 0 W/m 15,6 C 17,8 C 0,2 km/h (0 Bft)
15/10/2008 21:00 17,7 C 88 % 1018,2 hPa 0,0 l/m 0,0 km/h (0 Bft) N 0,00 h 0,025 mm 0 W/m 15,6 C 17,7 C 0,0 km/h (0 Bft)
15/10/2008 22:00 17,6 C 88 % 1018,2 hPa 0,0 l/m 0,0 km/h (0 Bft) N 0,00 h 0,025 mm 0 W/m 15,6 C 17,6 C 0,0 km/h (0 Bft)
15/10/2008 23:00 17,4 C 89 % 1018,2 hPa 0,0 l/m 0,0 km/h (0 Bft) N 0,00 h 0,025 mm 0 W/m 15,6 C 17,4 C 0,0 km/h (0 Bft)
16/10/2008 00:00 17,3 C 89 % 1017,7 hPa 0,0 l/m 0,0 km/h (0 Bft) N 0,00 h 0,025 mm 0 W/m 15,5 C 17,3 C 0,0 km/h (0 Bft)
16/10/2008 01:00 16,9 C 89 % 1017,3 hPa 0,0 l/m 0,0 km/h (0 Bft) N 0,00 h 0,025 mm 0 W/m 15,1 C 16,9 C 0,0 km/h (0 Bft)
16/10/2008 02:00 16,3 C 90 % 1016,9 hPa 0,0 l/m 1,1 km/h (1 Bft) E 0,00 h 0,025 mm 0 W/m 14,6 C 16,3 C 2,4 km/h (1 Bft)
16/10/2008 03:00 15,7 C 90 % 1016,3 hPa 0,0 l/m 1,9 km/h (1 Bft) NO 0,00 h 0,025 mm 0 W/m 14,1 C 15,7 C 3,4 km/h (1 Bft)
16/10/2008 04:00 15,2 C 91 % 1015,9 hPa 0,0 l/m 2,7 km/h (1 Bft) NO 0,00 h 0,025 mm 0 W/m 13,8 C 15,2 C 3,9 km/h (1 Bft)
16/10/2008 05:00 14,9 C 92 % 1015,8 hPa 0,0 l/m 3,4 km/h (1 Bft) NO 0,00 h 0,025 mm 0 W/m 13,6 C 14,9 C 4,5 km/h (1 Bft)
16/10/2008 06:00 14,7 C 93 % 1015,7 hPa 0,0 l/m 3,3 km/h (1 Bft) NO 0,00 h 0,025 mm 0 W/m 13,5 C 14,7 C 4,8 km/h (1 Bft)
16/10/2008 07:00 14,6 C 93 % 1015,5 hPa 0,0 l/m 5,4 km/h (1 Bft) O-NO 0,05 h 0,025 mm 8 W/m 13,5 C 14,6 C 6,7 km/h (2 Bft)
16/10/2008 08:00 15,2 C 93 % 1015,7 hPa 0,0 l/m 5,9 km/h (2 Bft) O 0,00 h 0,000 mm 53 W/m 14,0 C 15,2 C 7,6 km/h (2 Bft)
16/10/2008 09:00 16,8 C 93 % 1015,7 hPa 0,0 l/m 2,6 km/h (1 Bft) O 0,87 h 0,051 mm 184 W/m 15,6 C 16,8 C 4,2 km/h (1 Bft)
16/10/2008 10:00 19,3 C 80 % 1015,6 hPa 0,0 l/m 2,6 km/h (1 Bft) S-SE 1,00 h 0,102 mm 355 W/m 15,9 C 19,3 C 4,3 km/h (1 Bft)
16/10/2008 11:00 21,4 C 73 % 1015,2 hPa 0,0 l/m 3,2 km/h (1 Bft) E-NE 1,00 h 0,203 mm 444 W/m 16,4 C 21,4 C 5,5 km/h (1 Bft)
16/10/2008 12:00 23,3 C 66 % 1014,5 hPa 0,0 l/m 4,4 km/h (1 Bft) E 1,00 h 0,279 mm 521 W/m 16,6 C 23,3 C 7,5 km/h (2 Bft)
16/10/2008 13:00 25,1 C 59 % 1013,3 hPa 0,0 l/m 8,0 km/h (2 Bft) E 1,00 h 0,356 mm 548 W/m 16,4 C 25,1 C 12,6 km/h (3 Bft)
16/10/2008 14:00 26,7 C 45 % 1011,9 hPa 0,0 l/m 26,3 km/h (4 Bft) SO 1,00 h 0,406 mm 525 W/m 13,8 C 26,7 C 35,2 km/h (5 Bft)
16/10/2008 15:00 26,9 C 40 % 1011,0 hPa 0,0 l/m 28,6 km/h (4 Bft) SO 1,00 h 0,584 mm 433 W/m 12,2 C 26,9 C 38,6 km/h (5 Bft)
16/10/2008 16:00 25,9 C 41 % 1010,6 hPa 0,0 l/m 29,3 km/h (5 Bft) SO 1,00 h 0,559 mm 277 W/m 11,7 C 25,9 C 38,7 km/h (5 Bft)
16/10/2008 17:00 24,7 C 44 % 1010,4 hPa 0,0 l/m 27,1 km/h (4 Bft) SO 0,48 h 0,457 mm 105 W/m 11,6 C 24,7 C 34,9 km/h (5 Bft)
16/10/2008 18:00 23,5 C 50 % 1010,3 hPa 0,0 l/m 21,6 km/h (4 Bft) SO 0,00 h 0,305 mm 14 W/m 12,4 C 23,5 C 27,2 km/h (4 Bft)
16/10/2008 19:00 22,4 C 56 % 1010,4 hPa 0,0 l/m 24,1 km/h (4 Bft) SO 0,00 h 0,178 mm 0 W/m 13,0 C 22,4 C 29,9 km/h (5 Bft)
16/10/2008 20:00 21,6 C 55 % 1010,0 hPa 0,0 l/m 27,5 km/h (4 Bft) SO 0,00 h 0,178 mm 0 W/m 12,2 C 21,6 C 34,1 km/h (5 Bft)
16/10/2008 21:00 20,7 C 58 % 1009,6 hPa 0,0 l/m 22,2 km/h (4 Bft) SO 0,00 h 0,178 mm 0 W/m 12,1 C 20,7 C 28,3 km/h (4 Bft)
16/10/2008 22:00 19,7 C 61 % 1009,0 hPa 0,0 l/m 24,4 km/h (4 Bft) O-SO 0,00 h 0,152 mm 0 W/m 12,0 C 19,7 C 33,0 km/h (5 Bft)
16/10/2008 23:00 18,8 C 63 % 1009,0 hPa 0,0 l/m 15,2 km/h (3 Bft) O-SO 0,00 h 0,152 mm 0 W/m 11,7 C 18,8 C 22,2 km/h (4 Bft)
17/10/2008 00:00 17,6 C 65 % 1008,6 hPa 0,0 l/m 6,8 km/h (2 Bft) O-NO 0,00 h 0,102 mm 0 W/m 11,0 C 17,6 C 10,5 km/h (2 Bft)
17/10/2008 01:00 17,2 C 64 % 1008,3 hPa 0,0 l/m 6,6 km/h (2 Bft) O-SO 0,00 h 0,051 mm 0 W/m 10,3 C 17,2 C 9,4 km/h (2 Bft)
17/10/2008 02:00 17,0 C 64 % 1008,3 hPa 0,0 l/m 3,4 km/h (1 Bft) N 0,00 h 0,051 mm 0 W/m 10,2 C 17,0 C 5,7 km/h (1 Bft)
17/10/2008 03:00 16,5 C 79 % 1008,0 hPa 0,0 l/m 2,1 km/h (1 Bft) N 0,00 h 0,051 mm 0 W/m 12,8 C 16,5 C 4,1 km/h (1 Bft)
17/10/2008 04:00 17,0 C 85 % 1007,8 hPa 0,0 l/m 1,2 km/h (1 Bft) N 0,00 h 0,025 mm 0 W/m 14,4 C 17,0 C 2,8 km/h (1 Bft)
17/10/2008 05:00 16,9 C 86 % 1007,8 hPa 0,0 l/m 2,2 km/h (1 Bft) O 0,00 h 0,025 mm 0 W/m 14,6 C 16,9 C 3,8 km/h (1 Bft)
17/10/2008 06:00 16,6 C 87 % 1007,4 hPa 0,0 l/m 0,8 km/h (0 Bft) E-NE 0,00 h 0,025 mm 0 W/m 14,4 C 16,6 C 1,1 km/h (1 Bft)
17/10/2008 07:00 15,9 C 88 % 1007,5 hPa 0,0 l/m 2,2 km/h (1 Bft) O-NO 0,02 h 0,025 mm 9 W/m 13,8 C 15,9 C 3,3 km/h (1 Bft)
17/10/2008 08:00 16,0 C 89 % 1007,6 hPa 0,0 l/m 1,3 km/h (1 Bft) N 0,63 h 0,000 mm 71 W/m 14,2 C 16,0 C 3,1 km/h (1 Bft)
17/10/2008 09:00 17,1 C 85 % 1008,2 hPa 0,0 l/m 0,6 km/h (0 Bft) N 0,32 h 0,051 mm 151 W/m 14,6 C 17,1 C 1,9 km/h (1 Bft)
17/10/2008 10:00 20,1 C 72 % 1008,5 hPa 0,0 l/m 4,3 km/h (1 Bft) NE 1,00 h 0,102 mm 383 W/m 14,9 C 20,1 C 7,0 km/h (2 Bft)
17/10/2008 11:00 20,2 C 74 % 1008,9 hPa 0,0 l/m 6,2 km/h (2 Bft) E-NE 0,12 h 0,229 mm 199 W/m 15,4 C 20,2 C 8,9 km/h (2 Bft)
17/10/2008 12:00 21,7 C 69 % 1009,0 hPa 0,0 l/m 5,1 km/h (1 Bft) E 0,97 h 0,152 mm 532 W/m 15,7 C 21,7 C 8,4 km/h (2 Bft)
17/10/2008 13:00 22,7 C 66 % 1008,5 hPa 0,0 l/m 5,7 km/h (1 Bft) E 1,00 h 0,356 mm 554 W/m 16,1 C 22,7 C 9,9 km/h (2 Bft)
17/10/2008 14:00 22,0 C 69 % 1008,5 hPa 0,0 l/m 8,5 km/h (2 Bft) E 0,73 h 0,356 mm 430 W/m 16,1 C 22,0 C 14,0 km/h (3 Bft)
17/10/2008 15:00 20,4 C 75 % 1008,8 hPa 0,0 l/m 5,1 km/h (1 Bft) E 0,30 h 0,305 mm 246 W/m 16,0 C 20,4 C 8,8 km/h (2 Bft)
17/10/2008 16:00 21,2 C 73 % 1009,0 hPa 0,0 l/m 4,1 km/h (1 Bft) E 0,93 h 0,178 mm 293 W/m 16,2 C 21,2 C 7,8 km/h (2 Bft)
17/10/2008 17:00 20,3 C 78 % 1009,2 hPa 0,0 l/m 2,4 km/h (1 Bft) E 0,32 h 0,203 mm 111 W/m 16,3 C 20,3 C 4,6 km/h (1 Bft)
17/10/2008 18:00 19,1 C 81 % 1009,8 hPa 0,0 l/m 0,7 km/h (0 Bft) E-SE 0,02 h 0,076 mm 20 W/m 15,8 C 19,1 C 1,8 km/h (1 Bft)
17/10/2008 19:00 18,3 C 87 % 1010,6 hPa 0,0 l/m 0,6 km/h (0 Bft) E-SE 0,00 h 0,025 mm 0 W/m 16,0 C 18,3 C 1,7 km/h (1 Bft)
17/10/2008 20:00 17,6 C 89 % 1011,1 hPa 0,0 l/m 1,2 km/h (1 Bft) E-SE 0,00 h 0,000 mm 0 W/m 15,8 C 17,6 C 2,0 km/h (1 Bft)
17/10/2008 21:00 17,0 C 90 % 1011,5 hPa 0,0 l/m 2,8 km/h (1 Bft) E-SE 0,00 h 0,025 mm 0 W/m 15,4 C 17,0 C 3,8 km/h (1 Bft)
17/10/2008 22:00 17,0 C 92 % 1012,0 hPa 0,0 l/m 3,1 km/h (1 Bft) O-SO 0,00 h 0,025 mm 0 W/m 15,7 C 17,0 C 4,5 km/h (1 Bft)
17/10/2008 23:00 17,1 C 93 % 1012,7 hPa 0,0 l/m 1,1 km/h (1 Bft) O-SO 0,00 h 0,025 mm 0 W/m 15,9 C 17,1 C 2,0 km/h (1 Bft)
18/10/2008 00:00 16,6 C 93 % 1013,0 hPa 0,2 l/m 3,7 km/h (1 Bft) E 0,00 h 0,000 mm 0 W/m 15,5 C 16,6 C 5,5 km/h (1 Bft)
18/10/2008 01:00 16,7 C 93 % 1013,2 hPa 0,0 l/m 0,5 km/h (0 Bft) E 0,00 h 0,025 mm 0 W/m 15,6 C 16,7 C 0,9 km/h (0 Bft)
18/10/2008 02:00 16,6 C 93 % 1013,5 hPa 0,0 l/m 1,9 km/h (1 Bft) E 0,00 h 0,000 mm 0 W/m 15,4 C 16,6 C 3,5 km/h (1 Bft)
18/10/2008 03:00 16,4 C 93 % 1013,7 hPa 0,0 l/m 5,4 km/h (1 Bft) E 0,00 h 0,025 mm 0 W/m 15,3 C 16,4 C 8,0 km/h (2 Bft)
18/10/2008 04:00 16,3 C 93 % 1013,9 hPa 0,0 l/m 6,0 km/h (2 Bft) E-NE 0,00 h 0,025 mm 0 W/m 15,2 C 16,3 C 8,9 km/h (2 Bft)
18/10/2008 05:00 16,2 C 92 % 1014,1 hPa 0,0 l/m 3,3 km/h (1 Bft) E-NE 0,00 h 0,025 mm 0 W/m 14,9 C 16,2 C 5,2 km/h (1 Bft)
18/10/2008 06:00 15,7 C 92 % 1014,5 hPa 0,0 l/m 2,2 km/h (1 Bft) O 0,00 h 0,025 mm 0 W/m 14,4 C 15,7 C 3,7 km/h (1 Bft)
18/10/2008 07:00 14,9 C 92 % 1014,7 hPa 0,0 l/m 0,8 km/h (0 Bft) NO 0,00 h 0,025 mm 6 W/m 13,6 C 14,9 C 1,4 km/h (1 Bft)
18/10/2008 08:00 15,1 C 92 % 1015,2 hPa 0,0 l/m 0,6 km/h (0 Bft) NO 0,00 h 0,000 mm 33 W/m 13,8 C 15,1 C 1,6 km/h (1 Bft)
18/10/2008 09:00 16,8 C 87 % 1015,8 hPa 0,0 l/m 3,0 km/h (1 Bft) E-NE 0,68 h 0,025 mm 178 W/m 14,5 C 16,8 C 4,3 km/h (1 Bft)
18/10/2008 10:00 19,2 C 75 % 1016,3 hPa 0,0 l/m 6,8 km/h (2 Bft) E-NE 0,87 h 0,102 mm 287 W/m 14,6 C 19,2 C 9,9 km/h (2 Bft)
18/10/2008 11:00 19,3 C 76 % 1016,9 hPa 0,0 l/m 8,8 km/h (2 Bft) E-NE 0,12 h 0,178 mm 234 W/m 15,0 C 19,3 C 12,5 km/h (3 Bft)
18/10/2008 12:00 20,1 C 74 % 1017,1 hPa 0,0 l/m 11,2 km/h (2 Bft) E-NE 0,75 h 0,178 mm 360 W/m 15,4 C 20,1 C 16,0 km/h (3 Bft)
18/10/2008 13:00 20,8 C 66 % 1017,1 hPa 0,0 l/m 8,6 km/h (2 Bft) E 0,77 h 0,279 mm 508 W/m 14,3 C 20,8 C 14,0 km/h (3 Bft)
18/10/2008 14:00 20,4 C 64 % 1017,0 hPa 0,0 l/m 7,4 km/h (2 Bft) E 0,87 h 0,356 mm 431 W/m 13,5 C 20,4 C 11,7 km/h (2 Bft)
18/10/2008 15:00 20,6 C 66 % 1016,8 hPa 0,0 l/m 5,5 km/h (1 Bft) E 0,97 h 0,305 mm 400 W/m 14,1 C 20,6 C 9,4 km/h (2 Bft)
18/10/2008 16:00 19,6 C 72 % 1016,7 hPa 0,0 l/m 3,7 km/h (1 Bft) E 0,67 h 0,254 mm 227 W/m 14,4 C 19,6 C 6,5 km/h (2 Bft)
18/10/2008 17:00 18,6 C 77 % 1017,0 hPa 0,0 l/m 1,3 km/h (1 Bft) S-SE 0,37 h 0,152 mm 102 W/m 14,6 C 18,6 C 3,3 km/h (1 Bft)
18/10/2008 18:00 17,3 C 79 % 1017,4 hPa 0,0 l/m 0,4 km/h (0 Bft) SE 0,22 h 0,076 mm 29 W/m 13,6 C 17,3 C 0,8 km/h (0 Bft)
18/10/2008 19:00 16,0 C 81 % 1017,9 hPa 0,0 l/m 0,0 km/h (0 Bft) N 0,00 h 0,025 mm 0 W/m 12,7 C 16,0 C 0,0 km/h (0 Bft)
18/10/2008 20:00 15,6 C 85 % 1018,4 hPa 0,0 l/m 1,9 km/h (1 Bft) O 0,00 h 0,025 mm 0 W/m 13,1 C 15,6 C 2,8 km/h (1 Bft)
18/10/2008 21:00 15,4 C 87 % 1018,7 hPa 0,0 l/m 3,5 km/h (1 Bft) O 0,00 h 0,025 mm 0 W/m 13,3 C 15,4 C 4,7 km/h (1 Bft)
18/10/2008 22:00 15,1 C 88 % 1019,2 hPa 0,0 l/m 5,8 km/h (2 Bft) O 0,00 h 0,025 mm 0 W/m 13,2 C 15,1 C 7,4 km/h (2 Bft)
18/10/2008 23:00 14,5 C 89 % 1019,4 hPa 0,0 l/m 5,0 km/h (1 Bft) O-NO 0,00 h 0,025 mm 0 W/m 12,7 C 14,5 C 6,6 km/h (2 Bft)
19/10/2008 00:00 14,5 C 89 % 1019,3 hPa 0,0 l/m 3,3 km/h (1 Bft) O-NO 0,00 h 0,025 mm 0 W/m 12,7 C 14,5 C 4,5 km/h (1 Bft)
19/10/2008 01:00 14,1 C 87 % 1019,4 hPa 0,0 l/m 3,9 km/h (1 Bft) O-NO 0,00 h 0,025 mm 0 W/m 12,0 C 14,1 C 5,7 km/h (1 Bft)
19/10/2008 02:00 13,8 C 85 % 1019,4 hPa 0,0 l/m 5,6 km/h (1 Bft) O-NO 0,00 h 0,025 mm 0 W/m 11,3 C 13,8 C 7,3 km/h (2 Bft)
19/10/2008 03:00 13,7 C 82 % 1019,5 hPa 0,0 l/m 5,8 km/h (2 Bft) O-NO 0,00 h 0,025 mm 0 W/m 10,6 C 13,7 C 7,7 km/h (2 Bft)
19/10/2008 04:00 13,3 C 82 % 1019,4 hPa 0,0 l/m 4,2 km/h (1 Bft) O-NO 0,00 h 0,025 mm 0 W/m 10,3 C 13,3 C 6,7 km/h (2 Bft)
19/10/2008 05:00 13,0 C 81 % 1019,6 hPa 0,0 l/m 5,1 km/h (1 Bft) O-NO 0,00 h 0,025 mm 0 W/m 9,9 C 13,0 C 7,2 km/h (2 Bft)
19/10/2008 06:00 13,0 C 81 % 1019,9 hPa 0,0 l/m 3,3 km/h (1 Bft) NO 0,00 h 0,025 mm 0 W/m 9,8 C 13,0 C 5,5 km/h (1 Bft)
19/10/2008 07:00 13,3 C 82 % 1020,0 hPa 0,0 l/m 3,6 km/h (1 Bft) NO 0,00 h 0,025 mm 5 W/m 10,2 C 13,3 C 5,1 km/h (1 Bft)
19/10/2008 08:00 13,8 C 82 % 1020,6 hPa 0,0 l/m 3,1 km/h (1 Bft) NO 0,00 h 0,025 mm 32 W/m 10,8 C 13,8 C 4,6 km/h (1 Bft)
19/10/2008 09:00 14,9 C 81 % 1021,3 hPa 0,0 l/m 1,5 km/h (1 Bft) NO 0,00 h 0,025 mm 105 W/m 11,6 C 14,9 C 2,9 km/h (1 Bft)
19/10/2008 10:00 16,5 C 77 % 1021,8 hPa 0,0 l/m 0,6 km/h (0 Bft) NO 0,00 h 0,051 mm 163 W/m 12,5 C 16,5 C 1,6 km/h (1 Bft)
19/10/2008 11:00 17,8 C 78 % 1022,1 hPa 0,0 l/m 4,2 km/h (1 Bft) S 0,05 h 0,102 mm 247 W/m 13,8 C 17,8 C 6,6 km/h (2 Bft)
19/10/2008 12:00 18,8 C 74 % 1022,4 hPa 0,0 l/m 4,2 km/h (1 Bft) S-SE 0,35 h 0,152 mm 311 W/m 14,2 C 18,8 C 6,7 km/h (2 Bft)
19/10/2008 13:00 19,1 C 75 % 1022,1 hPa 0,0 l/m 8,4 km/h (2 Bft) S-SE 0,57 h 0,203 mm 328 W/m 14,5 C 19,1 C 12,3 km/h (3 Bft)
19/10/2008 14:00 19,5 C 74 % 1021,5 hPa 0,0 l/m 7,0 km/h (2 Bft) S-SE 0,48 h 0,229 mm 275 W/m 14,7 C 19,5 C 11,4 km/h (2 Bft)
19/10/2008 15:00 18,4 C 79 % 1021,2 hPa 0,0 l/m 11,3 km/h (2 Bft) S 0,05 h 0,178 mm 137 W/m 14,7 C 18,4 C 15,8 km/h (3 Bft)
19/10/2008 16:00 17,8 C 82 % 1021,3 hPa 0,0 l/m 6,6 km/h (2 Bft) S-SE 0,00 h 0,127 mm 45 W/m 14,6 C 17,8 C 9,4 km/h (2 Bft)
19/10/2008 17:00 17,3 C 85 % 1021,6 hPa 0,0 l/m 5,6 km/h (1 Bft) S-SE 0,00 h 0,051 mm 25 W/m 14,7 C 17,3 C 7,8 km/h (2 Bft)
19/10/2008 18:00 17,0 C 87 % 1021,7 hPa 0,0 l/m 4,2 km/h (1 Bft) SE 0,00 h 0,025 mm 14 W/m 14,8 C 17,0 C 6,6 km/h (2 Bft)
19/10/2008 19:00 16,8 C 88 % 1022,1 hPa 0,0 l/m 3,5 km/h (1 Bft) S 0,00 h 0,025 mm 0 W/m 14,7 C 16,8 C 5,3 km/h (1 Bft)
19/10/2008 20:00 16,6 C 89 % 1022,3 hPa 0,0 l/m 0,0 km/h (0 Bft) S 0,00 h 0,025 mm 0 W/m 14,8 C 16,6 C 0,3 km/h (0 Bft)
19/10/2008 21:00 16,3 C 90 % 1022,5 hPa 0,0 l/m 0,0 km/h (0 Bft) N 0,00 h 0,025 mm 0 W/m 14,6 C 16,3 C 0,0 km/h (0 Bft)
19/10/2008 22:00 16,2 C 91 % 1022,8 hPa 0,8 l/m 0,5 km/h (0 Bft) O-NO 0,00 h 0,025 mm 0 W/m 14,7 C 16,2 C 0,7 km/h (0 Bft)
19/10/2008 23:00 16,0 C 91 % 1023,0 hPa 0,0 l/m 0,0 km/h (0 Bft) N 0,00 h 0,025 mm 0 W/m 14,6 C 16,0 C 0,1 km/h (0 Bft)
Min-Date _ 19/10/08 16/10/08 17/10/08 - 13/10/08 - - - - 17/10/08 19/10/08 13/10/08
_ Min-Heure 05:07 15:23 06:00 - 00:21 - - - - 02:11 05:07 02:08
Minimum _ 12,9 C 37 % 1007,3 hPa - 0,0 km/h (0 Bft) - - - - 9,6 C 12,9 C 0,0 km/h (0 Bft)
Max-Date _ 16/10/08 18/10/08 13/10/08 19/10/08 16/10/08 - 13/10/08 16/10/08 18/10/08 16/10/08 16/10/08 16/10/08
_ Max-Heure 15:16 05:05 00:00 22:27 14:33 - 10:24 15:00 13:11 12:12 15:16 14:33
Maximum _ 27,3 C 96 % 1025,1 hPa 0,8 l/m 40,2 km/h
SO (6 Bft)
- 0,02 h 0,584 mm 740 W/m 17,5 C 27,3 C 53,1 km/h
SO (7 Bft)
Moyenne _ 17,9 C 78 % 1016,8 hPa #1,0 l/m 4,4 km/h (1 Bft) E #44:00 h #17,830 mm 244 W/m 13,7 C 17,9 C 6,6 km/h (2 Bft)
Roquefort les pins